createdAt,value
2022-09-05T00:03:17.165Z,5.13
2022-09-05T00:07:58.478Z,4.82
2022-09-05T00:12:03.154Z,5.07
2022-09-05T00:16:11.957Z,5.30
2022-09-05T00:24:20.751Z,5.28
2022-09-05T00:25:32.271Z,4.50
2022-09-05T00:30:57.296Z,5.18
2022-09-05T00:34:24.280Z,4.63
2022-09-05T00:38:32.100Z,4.47
2022-09-05T00:42:41.016Z,5.10
2022-09-05T00:47:26.345Z,5.32
2022-09-05T00:51:37.845Z,4.97
2022-09-05T00:56:17.524Z,4.72
2022-09-05T01:00:31.086Z,4.53
2022-09-05T01:05:12.358Z,5.70
2022-09-05T01:09:33.658Z,5.07
2022-09-05T01:13:51.937Z,5.55
2022-09-05T01:18:07.314Z,6.15
2022-09-05T01:22:41.257Z,7.05
2022-09-05T01:27:21.639Z,6.30
2022-09-05T01:31:37.644Z,6.05
2022-09-05T01:36:12.899Z,6.25
2022-09-05T01:40:34.612Z,6.35
2022-09-05T01:44:57.682Z,7.43
2022-09-05T01:49:25.007Z,7.38
2022-09-05T01:53:53.419Z,8.55
2022-09-05T01:58:16.889Z,10.23
2022-09-05T02:02:58.481Z,9.23
2022-09-05T02:07:19.345Z,8.68
2022-09-05T02:11:49.171Z,8.45
2022-09-05T02:16:21.187Z,9.20
2022-09-05T02:20:41.975Z,8.77
2022-09-05T02:24:48.707Z,9.38
2022-09-05T02:29:01.384Z,7.82
2022-09-05T02:33:29.101Z,7.75
2022-09-05T02:39:18.555Z,8.57
2022-09-05T02:45:17.571Z,8.80
2022-09-05T02:47:22.491Z,9.18
2022-09-05T02:57:23.151Z,8.57
2022-09-05T02:57:42.487Z,9.55
2022-09-05T03:01:03.354Z,9.32
2022-09-05T03:05:12.968Z,7.97
2022-09-05T03:09:34.426Z,8.68
2022-09-05T03:14:11.414Z,9.38
2022-09-05T03:18:41.505Z,8.10
2022-09-05T03:23:12.510Z,9.68
2022-09-05T03:27:44.073Z,7.40
2022-09-05T03:32:34.490Z,9.25
2022-09-05T03:37:07.818Z,8.88
2022-09-05T03:41:40.067Z,8.52
2022-09-05T03:46:02.764Z,8.30
2022-09-05T03:53:17.988Z,9.60
2022-09-05T03:57:12.689Z,10.35
2022-09-05T04:00:09.869Z,9.68
2022-09-05T04:08:10.041Z,8.80
2022-09-05T04:09:09.099Z,9.70
2022-09-05T04:13:23.933Z,9.82
2022-09-05T04:17:35.498Z,9.95
2022-09-05T04:21:55.383Z,9.23
2022-09-05T04:26:20.606Z,9.70
2022-09-05T04:30:46.639Z,11.02
2022-09-05T04:34:52.850Z,11.60
2022-09-05T04:39:17.401Z,11.55
2022-09-05T04:43:41.753Z,10.85
2022-09-05T04:47:52.367Z,12.40
2022-09-05T04:52:42.435Z,11.30
2022-09-05T04:56:49.932Z,10.85
2022-09-05T05:06:11.234Z,13.13
2022-09-05T05:06:13.104Z,11.43
2022-09-05T05:11:06.134Z,13.02
2022-09-05T05:18:09.766Z,13.25
2022-09-05T05:19:57.810Z,12.02
2022-09-05T05:24:15.342Z,12.73
2022-09-05T05:28:55.721Z,13.85
2022-09-05T05:33:00.573Z,12.45
2022-09-05T05:37:14.837Z,13.52
2022-09-05T05:41:31.282Z,12.30
2022-09-05T05:45:34.287Z,13.68
2022-09-05T05:49:37.007Z,13.45
2022-09-05T05:53:44.849Z,12.30
2022-09-05T05:58:07.564Z,13.10
2022-09-05T06:02:31.565Z,11.70
2022-09-05T06:06:56.221Z,12.90
2022-09-05T06:15:03.763Z,10.85
2022-09-05T06:16:08.464Z,9.77
2022-09-05T06:22:07.009Z,9.75
2022-09-05T06:25:17.337Z,9.48
2022-09-05T06:29:51.595Z,10.65
2022-09-05T06:34:32.771Z,12.40
2022-09-05T06:39:02.607Z,10.23
2022-09-05T06:43:26.507Z,8.98
2022-09-05T06:47:34.097Z,7.07
2022-09-05T06:52:28.674Z,5.68
2022-09-05T06:56:54.030Z,5.40
2022-09-05T07:00:59.000Z,6.00
2022-09-05T07:05:37.615Z,5.65
2022-09-05T07:10:36.907Z,5.93
2022-09-05T07:15:09.381Z,6.07
2022-09-05T07:19:38.380Z,10.20
2022-09-05T07:24:06.997Z,12.20
2022-09-05T07:28:25.901Z,12.98
2022-09-05T07:32:39.837Z,13.52
2022-09-05T07:36:46.784Z,13.63
2022-09-05T07:41:06.549Z,12.35
2022-09-05T07:45:17.551Z,10.90
2022-09-05T07:49:21.960Z,10.80
2022-09-05T07:56:51.809Z,11.25
2022-09-05T07:57:51.953Z,8.80
2022-09-05T08:01:56.599Z,6.80
2022-09-05T08:06:05.448Z,7.28
2022-09-05T08:10:17.262Z,8.07
2022-09-05T08:14:44.897Z,8.65
2022-09-05T08:19:18.428Z,9.20
2022-09-05T08:23:36.424Z,10.18
2022-09-05T08:28:03.353Z,8.35
2022-09-05T08:32:10.108Z,6.70
2022-09-05T08:36:31.358Z,6.80
2022-09-05T08:41:43.074Z,5.32
2022-09-05T08:46:40.133Z,4.05
2022-09-05T08:50:46.504Z,4.20
2022-09-05T08:55:08.596Z,4.15
2022-09-05T08:59:33.299Z,4.28
2022-09-05T09:04:13.097Z,4.18
2022-09-05T09:08:37.693Z,3.70
2022-09-05T09:12:59.185Z,4.30
2022-09-05T09:17:37.859Z,4.40
2022-09-05T09:21:46.906Z,3.50
2022-09-05T09:26:11.594Z,3.20
2022-09-05T09:30:16.209Z,3.20
2022-09-05T09:34:32.777Z,3.10
2022-09-05T09:38:48.021Z,3.28
2022-09-05T09:42:57.704Z,2.90
2022-09-05T09:47:03.280Z,2.78
2022-09-05T09:51:43.455Z,2.90
2022-09-05T09:56:27.672Z,3.03
2022-09-05T10:00:51.540Z,3.08
2022-09-05T10:10:46.650Z,3.20
2022-09-05T10:10:51.339Z,3.03
2022-09-05T10:14:59.612Z,2.60
2022-09-05T10:24:00.573Z,2.80
2022-09-05T10:28:10.766Z,2.30
2022-09-05T10:35:10.064Z,2.10
2022-09-05T10:37:12.409Z,2.92
2022-09-05T10:41:23.135Z,2.55
2022-09-05T10:45:49.765Z,2.30
2022-09-05T10:50:19.208Z,1.90
2022-09-05T10:54:22.567Z,2.42
2022-09-05T11:01:12.715Z,2.05
2022-09-05T11:03:01.448Z,2.20
2022-09-05T11:07:29.902Z,2.67
2022-09-05T11:11:46.698Z,1.77
2022-09-05T11:16:04.992Z,1.83
2022-09-05T11:20:35.477Z,1.85
2022-09-05T11:24:59.267Z,1.80
2022-09-05T11:29:18.436Z,1.92
2022-09-05T11:39:59.504Z,1.70
2022-09-05T11:40:10.956Z,1.70
2022-09-05T11:42:56.990Z,1.57
2022-09-05T11:47:27.069Z,1.90
2022-09-05T11:51:43.967Z,1.80
2022-09-05T11:56:08.365Z,1.50
2022-09-05T12:00:34.695Z,1.50
2022-09-05T12:05:50.385Z,1.65
2022-09-05T12:09:50.259Z,1.65
2022-09-05T12:19:43.141Z,1.60
2022-09-05T12:24:35.405Z,1.52
2022-09-05T12:29:26.280Z,1.55
2022-09-05T12:36:05.776Z,1.40
2022-09-05T12:41:41.216Z,1.70
2022-09-05T12:42:54.779Z,1.95
2022-09-05T12:47:23.237Z,1.45
2022-09-05T12:51:46.016Z,1.30
2022-09-05T12:56:38.690Z,1.70
2022-09-05T13:03:08.948Z,1.50
2022-09-05T13:05:03.538Z,1.35
2022-09-05T13:09:16.801Z,1.65
2022-09-05T13:14:56.694Z,1.40
2022-09-05T13:17:59.696Z,1.40
2022-09-05T13:22:04.825Z,1.35
2022-09-05T13:26:18.065Z,1.40
2022-09-05T13:31:36.205Z,1.10
2022-09-05T13:38:04.153Z,1.20
2022-09-05T13:39:14.414Z,1.10
2022-09-05T13:43:26.510Z,1.30
2022-09-05T13:47:58.040Z,1.35
2022-09-05T13:52:29.186Z,1.10
2022-09-05T13:56:33.196Z,1.40
2022-09-05T14:00:38.256Z,1.10
2022-09-05T14:05:16.147Z,1.00
2022-09-05T14:09:42.462Z,1.33
2022-09-05T14:14:02.228Z,1.33
2022-09-05T14:18:20.561Z,1.35
2022-09-05T14:22:48.696Z,1.30
2022-09-05T14:27:07.161Z,1.25
2022-09-05T14:37:41.027Z,1.10
2022-09-05T14:37:49.104Z,1.23
2022-09-05T14:40:39.610Z,1.33
2022-09-05T14:45:22.893Z,1.17
2022-09-05T14:49:51.173Z,1.20
2022-09-05T14:53:59.969Z,1.20
2022-09-05T15:02:58.393Z,0.98
2022-09-05T15:02:58.535Z,1.20
2022-09-05T15:07:04.147Z,1.60
2022-09-05T15:12:23.313Z,1.40
2022-09-05T15:15:45.216Z,1.63
2022-09-05T15:20:07.478Z,1.50
2022-09-05T15:24:31.308Z,1.30
2022-09-05T15:28:45.701Z,1.30
2022-09-05T15:32:50.726Z,1.50
2022-09-05T15:36:55.408Z,1.60
2022-09-05T15:41:23.210Z,1.48
2022-09-05T15:45:35.737Z,1.40
2022-09-05T15:49:55.942Z,1.33
2022-09-05T15:54:02.034Z,1.60
2022-09-05T15:58:08.031Z,1.63
2022-09-05T16:02:18.936Z,1.70
2022-09-05T16:10:38.655Z,1.52
2022-09-05T16:23:11.643Z,1.40
2022-09-05T16:23:25.485Z,1.90
2022-09-05T16:24:59.305Z,1.38
2022-09-05T16:29:26.197Z,1.48
2022-09-05T16:33:34.062Z,1.20
2022-09-05T16:37:55.196Z,1.15
2022-09-05T16:42:46.110Z,1.58
2022-09-05T16:47:36.380Z,2.00
2022-09-05T16:51:45.981Z,2.22
2022-09-05T16:55:57.757Z,1.75
2022-09-05T17:00:10.284Z,1.70
2022-09-05T17:09:28.232Z,1.42
2022-09-05T17:13:56.946Z,1.70
2022-09-05T17:18:56.054Z,1.60
2022-09-05T17:28:48.715Z,1.33
2022-09-05T17:35:53.714Z,1.40
2022-09-05T17:40:45.215Z,1.75
2022-09-05T17:50:40.215Z,1.80
2022-09-05T17:54:56.014Z,1.50
2022-09-05T17:59:33.868Z,1.63
2022-09-05T18:03:50.750Z,1.75
2022-09-05T18:08:52.839Z,2.30
2022-09-05T18:13:32.211Z,1.55
2022-09-05T18:18:29.953Z,1.77
2022-09-05T18:22:42.287Z,1.80
2022-09-05T18:26:53.309Z,2.22
2022-09-05T18:31:43.725Z,2.17
2022-09-05T18:35:55.089Z,2.20
2022-09-05T18:40:16.634Z,1.90
2022-09-05T18:44:59.758Z,2.22
2022-09-05T18:50:12.563Z,1.83
2022-09-05T18:53:42.521Z,2.10
2022-09-05T18:57:58.872Z,1.80
2022-09-05T19:02:34.891Z,1.75
2022-09-05T19:06:38.002Z,1.75
2022-09-05T19:10:41.656Z,1.75
2022-09-05T19:14:57.330Z,1.70
2022-09-05T19:19:09.338Z,2.13
2022-09-05T19:23:13.793Z,2.00
2022-09-05T19:28:13.898Z,2.53
2022-09-05T19:36:53.009Z,2.50
2022-09-05T19:37:15.393Z,2.20
2022-09-05T19:46:52.177Z,2.63
2022-09-05T19:47:37.699Z,2.60
2022-09-05T19:50:07.134Z,2.30
2022-09-05T19:54:38.284Z,2.17
2022-09-05T19:58:42.448Z,2.60
2022-09-05T20:02:53.335Z,2.80
2022-09-05T20:06:56.955Z,2.90
2022-09-05T20:11:07.135Z,2.50
2022-09-05T20:15:22.844Z,2.92
2022-09-05T20:19:32.372Z,3.00
2022-09-05T20:23:39.815Z,3.08
2022-09-05T20:27:46.191Z,2.90
2022-09-05T20:41:32.156Z,3.35
2022-09-05T20:43:15.475Z,3.25
2022-09-05T20:45:07.163Z,3.50
2022-09-05T20:54:16.617Z,3.42
2022-09-05T20:54:27.679Z,3.58
2022-09-05T20:58:31.215Z,3.63
2022-09-05T21:02:35.616Z,3.60
2022-09-05T21:06:41.619Z,3.50
2022-09-05T21:10:56.494Z,3.65
2022-09-05T21:15:31.743Z,3.30
2022-09-05T21:19:54.206Z,3.90
2022-09-05T21:24:17.185Z,3.85
2022-09-05T21:28:36.597Z,4.35
2022-09-05T21:32:42.755Z,4.75
2022-09-05T21:36:45.443Z,4.65
2022-09-05T21:40:52.863Z,5.45
2022-09-05T21:47:39.161Z,5.38
2022-09-05T21:49:18.950Z,5.47
2022-09-05T21:59:02.060Z,5.65
2022-09-05T21:59:19.474Z,6.13
2022-09-05T22:02:37.419Z,6.90
2022-09-05T22:06:40.889Z,6.93
2022-09-05T22:10:52.340Z,7.07
2022-09-05T22:15:08.694Z,7.72
2022-09-05T22:19:37.829Z,6.57
2022-09-05T22:23:46.028Z,6.57
2022-09-05T22:27:50.686Z,6.03
2022-09-05T22:31:54.762Z,5.93
2022-09-05T22:36:00.034Z,6.15
2022-09-05T22:40:09.719Z,5.20
2022-09-05T22:44:12.554Z,6.10
2022-09-05T22:48:15.550Z,5.72
2022-09-05T22:52:18.351Z,4.95
2022-09-05T22:56:32.750Z,5.15
2022-09-05T23:00:36.285Z,4.65
2022-09-05T23:04:39.040Z,5.43
2022-09-05T23:08:50.546Z,4.50
2022-09-05T23:13:03.454Z,5.20
2022-09-05T23:17:06.783Z,4.60
2022-09-05T23:21:17.408Z,5.55
2022-09-05T23:25:24.295Z,5.30
2022-09-05T23:29:30.387Z,5.28
2022-09-05T23:33:37.711Z,5.57
2022-09-05T23:37:50.621Z,6.18
2022-09-05T23:42:07.704Z,6.40
2022-09-05T23:46:16.715Z,6.30
2022-09-05T23:50:20.588Z,6.68
2022-09-05T23:54:28.780Z,6.65
2022-09-05T23:58:42.384Z,6.78
